Time;durP1;ratioP1;P1;durP2;ratioP2;P2;SDS_P1;SDS_P2;PMS_P1;PMS_P2;Temp;Humidity;BMP_temperature;BMP_pressure;BME280_temperature;BME280_humidity;BME280_pressure;Samples;Min_cycle;Max_cycle;Signal;HPM_P1;HPM_P2
2022/06/29 00:02:09;;;;;;;25.13;16.05;;;;;;;14.62;79.49;101491.91;5095571;28;20025;-52
2022/06/29 00:04:34;;;;;;;22.02;14.75;;;;;;;14.60;79.38;101498.78;5094933;28;20024;-51
2022/06/29 00:06:59;;;;;;;23.95;15.90;;;;;;;14.54;80.23;101496.94;5095088;28;20032;-52
2022/06/29 00:09:25;;;;;;;27.45;15.68;;;;;;;14.48;80.11;101494.19;5095306;28;20020;-52
2022/06/29 00:11:50;;;;;;;26.73;15.90;;;;;;;14.50;80.44;101492.50;5094753;28;20040;-52
2022/06/29 00:14:15;;;;;;;26.15;15.68;;;;;;;14.44;80.25;101501.00;5094790;28;20481;-51
2022/06/29 00:16:40;;;;;;;27.65;16.00;;;;;;;14.42;80.80;101491.44;5095002;28;20028;-51
2022/06/29 00:19:06;;;;;;;25.02;16.60;;;;;;;14.32;80.68;101482.56;5094509;28;20364;-51
2022/06/29 00:21:32;;;;;;;25.23;16.25;;;;;;;14.27;80.18;101490.22;5094757;28;20428;-52
2022/06/29 00:23:58;;;;;;;22.63;15.43;;;;;;;14.23;80.54;101487.50;5094273;28;20048;-52
2022/06/29 00:26:24;;;;;;;22.55;16.65;;;;;;;14.14;81.17;101486.44;5094962;28;20109;-52
2022/06/29 00:28:49;;;;;;;23.70;16.90;;;;;;;14.15;81.96;101480.44;5094664;28;20387;-51
2022/06/29 00:31:14;;;;;;;23.38;16.38;;;;;;;14.08;82.08;101483.69;5094040;28;20036;-52
2022/06/29 00:33:39;;;;;;;27.10;16.65;;;;;;;14.05;81.88;101477.59;5094916;28;20028;-52
2022/06/29 00:36:05;;;;;;;24.50;16.73;;;;;;;13.99;81.88;101483.47;5094520;28;20036;-52
2022/06/29 00:38:30;;;;;;;22.35;15.85;;;;;;;13.95;82.48;101482.50;5094216;28;20379;-52
2022/06/29 00:40:55;;;;;;;25.85;17.58;;;;;;;13.92;82.62;101478.97;5094698;28;20024;-52
2022/06/29 00:43:20;;;;;;;24.05;17.83;;;;;;;13.94;83.41;101475.59;5094209;28;20077;-52
2022/06/29 00:45:46;;;;;;;27.48;17.63;;;;;;;13.97;83.28;101479.97;5094054;28;20034;-49
2022/06/29 00:48:11;;;;;;;27.02;17.80;;;;;;;13.95;82.80;101481.66;5094391;28;20028;-49
2022/06/29 00:50:38;;;;;;;33.50;17.48;;;;;;;13.95;82.63;101469.53;5094453;28;20040;-49
2022/06/29 00:53:05;;;;;;;25.50;17.88;;;;;;;13.84;82.86;101473.59;5093713;28;20490;-48
2022/06/29 00:55:35;;;;;;;29.95;17.65;;;;;;;13.78;83.62;101466.53;5094153;28;20119;-49
2022/06/29 00:58:05;;;;;;;24.70;17.92;;;;;;;13.78;83.57;101469.13;5093960;28;20115;-50
2022/06/29 01:00:31;;;;;;;27.67;17.83;;;;;;;13.68;83.61;101464.53;5093850;28;20017;-47
2022/06/29 01:02:58;;;;;;;23.48;18.08;;;;;;;13.62;83.41;101465.25;5094300;28;20028;-50
2022/06/29 01:05:24;;;;;;;22.90;17.95;;;;;;;13.58;83.52;101454.75;5094300;28;20024;-50
2022/06/29 01:07:49;;;;;;;26.02;19.10;;;;;;;13.50;84.56;101451.97;5093612;28;20028;-51
2022/06/29 01:10:14;;;;;;;27.88;17.85;;;;;;;13.49;84.15;101451.09;5093268;28;20464;-50
2022/06/29 01:12:40;;;;;;;23.38;18.20;;;;;;;13.45;84.92;101448.38;5094014;28;20035;-50
2022/06/29 01:15:06;;;;;;;27.85;19.73;;;;;;;13.57;85.01;101453.00;5093547;28;20149;-51
2022/06/29 01:17:31;;;;;;;26.30;19.95;;;;;;;13.49;84.81;101456.28;5093673;28;20456;-51
2022/06/29 01:19:57;;;;;;;22.75;18.27;;;;;;;13.46;85.38;101451.00;5094005;28;20024;-50
2022/06/29 01:22:23;;;;;;;25.40;19.40;;;;;;;13.38;85.47;101452.50;5093396;28;20422;-50
2022/06/29 01:24:50;;;;;;;26.73;19.83;;;;;;;13.32;86.19;101455.78;5093691;28;20020;-51
2022/06/29 01:27:17;;;;;;;25.08;19.45;;;;;;;13.31;86.13;101460.88;5093077;28;20475;-50
2022/06/29 01:29:44;;;;;;;26.75;19.65;;;;;;;13.25;85.82;101450.38;5093904;28;20028;-50
2022/06/29 01:32:10;;;;;;;28.13;19.85;;;;;;;13.22;85.84;101450.28;5093416;28;20103;-51
2022/06/29 01:34:36;;;;;;;25.15;19.60;;;;;;;13.15;86.24;101437.16;5093201;28;20105;-50
2022/06/29 01:37:03;;;;;;;25.45;20.00;;;;;;;13.14;86.77;101444.88;5093595;28;20012;-50
2022/06/29 01:39:29;;;;;;;26.25;20.42;;;;;;;13.09;86.96;101444.78;5093173;28;20421;-51
2022/06/29 01:41:55;;;;;;;28.75;21.33;;;;;;;13.06;87.58;101439.50;5093005;28;20058;-50
2022/06/29 01:44:21;;;;;;;26.08;20.50;;;;;;;13.05;88.53;101436.84;5093320;28;20024;-50
2022/06/29 01:46:46;;;;;;;27.40;20.70;;;;;;;12.97;88.55;101439.22;5093622;28;20030;-50
2022/06/29 01:49:11;;;;;;;28.02;22.23;;;;;;;12.97;88.89;101440.09;5092794;28;20024;-50
2022/06/29 01:51:37;;;;;;;28.23;21.58;;;;;;;12.92;89.42;101441.66;5093087;28;20035;-50
2022/06/29 01:54:03;;;;;;;29.15;22.42;;;;;;;12.94;90.35;101444.31;5093230;28;20024;-50
2022/06/29 01:56:28;;;;;;;29.88;23.35;;;;;;;12.94;90.14;101434.84;5092668;28;20024;-50
2022/06/29 01:58:53;;;;;;;27.98;22.50;;;;;;;12.89;89.54;101425.19;5093032;28;20048;-51
2022/06/29 02:01:18;;;;;;;32.20;22.20;;;;;;;12.83;89.73;101431.94;5092989;28;20059;-50
2022/06/29 02:03:44;;;;;;;32.00;22.20;;;;;;;12.82;89.84;101435.34;5092837;28;20028;-50
2022/06/29 02:06:10;;;;;;;29.23;22.67;;;;;;;12.78;90.41;101428.34;5092818;28;20094;-51
2022/06/29 02:08:35;;;;;;;35.92;22.95;;;;;;;12.78;91.61;101423.19;5093081;28;20055;-47
2022/06/29 02:11:01;;;;;;;30.30;23.77;;;;;;;12.76;91.54;101424.81;5092208;28;20417;-50
2022/06/29 02:13:27;;;;;;;34.22;24.90;;;;;;;12.73;92.04;101429.91;5092690;28;20460;-51
2022/06/29 02:15:52;;;;;;;32.25;22.80;;;;;;;12.70;91.50;101428.94;5093266;28;20020;-50
2022/06/29 02:18:18;;;;;;;28.27;23.08;;;;;;;12.66;91.34;101426.25;5092224;28;20016;-49
2022/06/29 02:20:43;;;;;;;27.92;22.90;;;;;;;12.62;91.16;101428.72;5092038;28;20020;-51
2022/06/29 02:23:09;;;;;;;34.35;24.52;;;;;;;12.60;91.57;101428.66;5092892;28;20028;-50
2022/06/29 02:25:34;;;;;;;30.83;23.90;;;;;;;12.60;92.16;101432.94;5092305;28;20380;-50
2022/06/29 02:27:59;;;;;;;31.65;24.45;;;;;;;12.64;92.29;101425.34;5092773;28;20020;-50
2022/06/29 02:34:43;;;;;;;33.65;24.85;;;;;;;12.68;92.21;101427.19;5092314;28;20059;-50
2022/06/29 02:35:56;;;;;;;35.25;25.52;;;;;;;12.72;91.59;101416.91;5093163;28;20495;-52
2022/06/29 02:38:21;;;;;;;37.45;24.25;;;;;;;12.71;91.42;101426.41;5091932;28;20111;-49
2022/06/29 02:40:46;;;;;;;31.70;25.00;;;;;;;12.74;91.67;101423.03;5092659;28;20157;-50
2022/06/29 02:43:12;;;;;;;31.70;24.48;;;;;;;12.76;91.43;101426.53;5092758;28;20027;-50
2022/06/29 02:45:37;;;;;;;39.25;26.67;;;;;;;12.79;92.80;101422.31;5092047;28;20074;-51
2022/06/29 02:48:02;;;;;;;35.38;24.77;;;;;;;12.77;92.65;101416.25;5092500;28;20028;-50
2022/06/29 02:50:28;;;;;;;32.45;25.58;;;;;;;12.73;92.32;101414.41;5092570;28;20070;-50
2022/06/29 02:52:53;;;;;;;34.15;24.08;;;;;;;12.71;91.72;101410.00;5092362;28;20024;-51
2022/06/29 02:55:18;;;;;;;31.63;24.50;;;;;;;12.71;91.32;101410.88;5092430;28;20038;-49
2022/06/29 02:57:44;;;;;;;30.08;23.80;;;;;;;12.69;91.28;101412.53;5092687;28;20024;-51
2022/06/29 03:00:10;;;;;;;32.53;24.65;;;;;;;12.65;92.00;101405.50;5091963;28;20025;-51
2022/06/29 03:02:35;;;;;;;28.92;24.20;;;;;;;12.59;92.36;101405.31;5092191;28;20112;-51
2022/06/29 03:05:01;;;;;;;33.10;24.63;;;;;;;12.52;92.51;101405.16;5092434;28;20051;-51
2022/06/29 03:07:26;;;;;;;34.83;25.80;;;;;;;12.50;92.89;101404.22;5091789;28;20430;-50
2022/06/29 03:09:51;;;;;;;34.60;25.17;;;;;;;12.48;93.69;101398.13;5092360;28;20035;-50
2022/06/29 03:12:17;;;;;;;35.28;25.67;;;;;;;12.44;93.55;101396.28;5092147;28;20111;-51
2022/06/29 03:14:42;;;;;;;37.33;27.35;;;;;;;12.39;93.49;101395.25;5092062;28;20429;-50
2022/06/29 03:17:07;;;;;;;36.40;27.67;;;;;;;12.38;93.44;101390.91;5092096;28;20024;-50
2022/06/29 03:19:33;;;;;;;32.97;26.73;;;;;;;12.34;93.53;101394.22;5092169;28;20035;-51
2022/06/29 03:21:58;;;;;;;34.33;27.15;;;;;;;12.31;94.42;101399.31;5091548;28;20030;-50
2022/06/29 03:24:23;;;;;;;40.53;29.17;;;;;;;12.30;94.32;101387.22;5092257;28;20512;-50
2022/06/29 03:26:49;;;;;;;38.67;29.30;;;;;;;12.30;94.15;101384.63;5091848;28;20024;-50
2022/06/29 03:29:14;;;;;;;38.97;29.75;;;;;;;12.34;94.25;101381.31;5092096;28;20357;-48
2022/06/29 03:31:39;;;;;;;39.10;28.33;;;;;;;12.33;93.83;101382.13;5092676;28;20475;-50
2022/06/29 03:34:04;;;;;;;38.50;28.90;;;;;;;12.38;93.99;101377.97;5095408;28;20024;-50
2022/06/29 03:36:30;;;;;;;37.00;28.10;;;;;;;12.41;94.00;101380.69;5095545;28;20028;-51
2022/06/29 03:38:55;;;;;;;38.45;29.52;;;;;;;12.43;94.25;101368.66;5095929;28;20479;-51
2022/06/29 03:41:20;;;;;;;42.40;31.20;;;;;;;12.41;94.05;101370.34;5095248;28;20111;-50
2022/06/29 03:43:46;;;;;;;39.58;29.58;;;;;;;12.34;93.50;101360.63;5095774;28;20024;-50
2022/06/29 03:46:11;;;;;;;42.58;31.27;;;;;;;12.30;93.74;101363.97;5095667;28;20457;-50
2022/06/29 03:48:36;;;;;;;36.85;29.15;;;;;;;12.27;93.68;101366.47;5095000;28;20035;-50
2022/06/29 03:51:02;;;;;;;37.63;29.85;;;;;;;12.27;94.00;101369.03;5095092;28;20036;-49
2022/06/29 03:53:27;;;;;;;46.67;32.58;;;;;;;12.23;94.15;101355.16;5095738;28;20118;-50
2022/06/29 03:55:52;;;;;;;43.60;30.95;;;;;;;12.24;94.14;101366.34;5095415;28;20064;-50
2022/06/29 03:58:17;;;;;;;41.10;32.10;;;;;;;12.24;94.30;101361.19;5094979;28;20388;-50
2022/06/29 04:00:43;;;;;;;45.53;32.53;;;;;;;12.23;94.57;101359.44;5095534;28;20059;-49
2022/06/29 04:03:08;;;;;;;40.72;33.03;;;;;;;12.23;94.85;101359.44;5094828;28;20022;-49
2022/06/29 04:05:33;;;;;;;46.65;34.75;;;;;;;12.23;94.96;101354.28;5095012;28;20023;-49
2022/06/29 04:07:59;;;;;;;47.83;35.85;;;;;;;12.24;95.49;101350.84;5095444;28;20028;-48
2022/06/29 04:10:24;;;;;;;43.70;33.78;;;;;;;12.23;95.69;101354.28;5094726;28;20103;-51
2022/06/29 04:12:49;;;;;;;46.65;34.22;;;;;;;12.23;95.73;101359.44;5095193;28;20020;-50
2022/06/29 04:15:15;;;;;;;45.95;34.30;;;;;;;12.25;96.35;101356.09;5095163;28;20099;-51
2022/06/29 04:17:40;;;;;;;46.70;36.40;;;;;;;12.26;95.37;101354.38;5094430;28;20464;-51
2022/06/29 04:20:06;;;;;;;47.83;37.33;;;;;;;12.29;95.31;101363.09;5094635;28;20472;-51
2022/06/29 04:22:31;;;;;;;50.78;37.13;;;;;;;12.30;96.08;101358.78;5094906;28;20059;-51
2022/06/29 04:24:58;;;;;;;46.42;35.97;;;;;;;12.33;96.44;101354.59;5094633;28;20028;-50
2022/06/29 04:27:23;;;;;;;46.77;38.27;;;;;;;12.38;96.63;101357.31;5094880;28;20051;-51
2022/06/29 04:29:49;;;;;;;46.88;37.75;;;;;;;12.44;96.48;101365.25;5094742;28;20626;-50
2022/06/29 04:32:15;;;;;;;47.03;39.22;;;;;;;12.46;96.48;101353.25;5094257;28;20024;-51
2022/06/29 04:34:40;;;;;;;55.13;37.90;;;;;;;12.54;96.39;101355.19;5094421;28;20046;-50
2022/06/29 04:37:05;;;;;;;48.95;37.75;;;;;;;12.54;96.32;101352.59;5094280;28;20035;-50
2022/06/29 04:39:30;;;;;;;47.60;36.22;;;;;;;12.59;95.69;101344.16;5094769;28;20440;-51
2022/06/29 04:41:56;;;;;;;54.60;37.30;;;;;;;12.67;95.58;101347.84;5094656;28;20031;-51
2022/06/29 04:44:21;;;;;;;49.92;38.10;;;;;;;12.70;96.06;101344.47;5093020;28;20813;-51
2022/06/29 04:46:46;;;;;;;49.15;38.33;;;;;;;12.79;95.51;101352.47;5094462;28;20032;-51
2022/06/29 04:49:12;;;;;;;43.80;37.22;;;;;;;12.84;95.76;101353.47;5094302;28;20089;-51
2022/06/29 04:51:37;;;;;;;53.78;36.78;;;;;;;12.95;95.27;101356.41;5094077;28;20376;-51
2022/06/29 04:54:03;;;;;;;51.13;36.83;;;;;;;13.08;94.20;101355.03;5094145;28;20452;-50
2022/06/29 04:56:32;;;;;;;50.90;36.55;;;;;;;13.25;92.92;101357.19;5094330;28;20070;-51
2022/06/29 04:58:59;;;;;;;48.58;37.55;;;;;;;13.42;92.55;101350.78;5093589;28;20132;-51
2022/06/29 05:01:26;;;;;;;49.53;35.13;;;;;;;13.56;91.27;101353.72;5093996;28;20036;-50
2022/06/29 05:03:52;;;;;;;49.15;36.22;;;;;;;13.73;90.80;101348.09;5094192;28;20024;-50
2022/06/29 05:06:18;;;;;;;46.92;35.03;;;;;;;13.86;90.15;101351.84;5093645;28;20115;-50
2022/06/29 05:08:44;;;;;;;48.47;34.45;;;;;;;13.96;89.07;101346.91;5093805;28;20383;-49
2022/06/29 05:11:10;;;;;;;47.13;35.55;;;;;;;14.03;88.31;101345.34;5093967;28;20467;-50
2022/06/29 05:13:35;;;;;;;48.00;37.15;;;;;;;14.14;87.92;101343.88;5093502;28;20020;-50
2022/06/29 05:16:00;;;;;;;53.03;35.53;;;;;;;14.23;88.14;101345.81;5093618;28;20437;-50
2022/06/29 05:18:28;;;;;;;46.30;36.65;;;;;;;14.29;87.91;101334.69;5093741;28;20027;-51
2022/06/29 05:20:53;;;;;;;49.95;37.28;;;;;;;14.37;86.49;101335.75;5093622;28;20028;-51
2022/06/29 05:23:19;;;;;;;52.17;38.72;;;;;;;14.46;85.98;101335.94;5093465;28;20034;-51
2022/06/29 05:25:44;;;;;;;53.38;38.47;;;;;;;14.52;87.13;101336.91;5093997;28;20020;-51
2022/06/29 05:28:11;;;;;;;50.25;39.78;;;;;;;14.58;86.37;101326.69;5093093;28;20024;-51
2022/06/29 05:30:37;;;;;;;56.33;38.08;;;;;;;14.67;85.90;101332.09;5093445;28;20039;-51
2022/06/29 05:33:02;;;;;;;61.15;38.58;;;;;;;14.78;85.74;101328.00;5093400;28;20031;-51
2022/06/29 05:35:29;;;;;;;52.72;38.42;;;;;;;14.89;85.29;101328.19;5093289;28;20093;-52
2022/06/29 05:37:54;;;;;;;52.35;38.38;;;;;;;14.99;85.37;101326.66;5093565;28;20046;-51
2022/06/29 05:40:20;;;;;;;55.90;39.60;;;;;;;15.07;85.02;101330.28;5092898;28;20020;-52
2022/06/29 05:42:45;;;;;;;53.75;40.50;;;;;;;15.15;85.18;101320.88;5093298;28;20111;-51
2022/06/29 05:45:10;;;;;;;49.78;38.60;;;;;;;15.25;84.21;101321.09;5093389;28;20024;-51
2022/06/29 05:47:36;;;;;;;51.25;36.33;;;;;;;15.40;83.41;101318.75;5092821;28;20032;-49
2022/06/29 05:50:01;;;;;;;43.83;36.53;;;;;;;15.51;83.11;101320.66;5092809;28;20483;-51
2022/06/29 05:52:27;;;;;;;55.42;36.03;;;;;;;15.61;83.44;101317.38;5093380;28;20098;-51
2022/06/29 05:54:52;;;;;;;53.20;35.97;;;;;;;15.72;83.51;101320.97;5092231;28;20027;-51
2022/06/29 05:57:19;;;;;;;48.45;35.80;;;;;;;15.84;84.31;101329.88;5092668;28;20024;-51
2022/06/29 05:59:47;;;;;;;51.47;34.55;;;;;;;15.90;82.72;101335.16;5093092;28;20040;-51
2022/06/29 06:02:13;;;;;;;51.80;35.63;;;;;;;15.99;82.54;101324.91;5092499;28;20020;-52
2022/06/29 06:04:38;;;;;;;58.83;36.33;;;;;;;16.09;82.64;101324.19;5093056;28;20024;-51
2022/06/29 06:07:04;;;;;;;48.75;33.80;;;;;;;16.15;82.91;101330.31;5093172;28;20020;-51
2022/06/29 06:09:29;;;;;;;45.00;31.95;;;;;;;16.24;81.76;101330.44;5092503;28;20081;-51
2022/06/29 06:11:55;;;;;;;52.10;32.05;;;;;;;16.33;80.92;101327.97;5092931;28;20020;-51
2022/06/29 06:14:20;;;;;;;41.67;30.45;;;;;;;16.44;79.85;101323.78;5092905;28;20095;-51
2022/06/29 06:16:46;;;;;;;48.20;31.58;;;;;;;16.57;80.59;101323.97;5092486;28;20035;-52
2022/06/29 06:19:11;;;;;;;43.60;30.33;;;;;;;16.66;79.93;101323.19;5092461;28;20027;-51
2022/06/29 06:21:37;;;;;;;44.45;30.08;;;;;;;16.73;80.64;101320.69;5092975;28;20044;-51
2022/06/29 06:24:03;;;;;;;38.30;27.10;;;;;;;16.86;78.00;101320.81;5092240;28;20464;-51
2022/06/29 06:26:28;;;;;;;37.03;26.10;;;;;;;16.96;77.65;101327.91;5092547;28;20028;-51
2022/06/29 06:28:53;;;;;;;38.78;24.63;;;;;;;17.08;78.22;101328.03;5092916;28;20023;-52
2022/06/29 06:31:19;;;;;;;38.08;25.27;;;;;;;17.19;78.68;101317.72;5091986;28;20032;-52
2022/06/29 06:33:44;;;;;;;32.60;22.98;;;;;;;17.33;76.21;101323.06;5092631;28;20471;-51
2022/06/29 06:36:09;;;;;;;33.10;22.23;;;;;;;17.49;75.08;101324.06;5092836;28;20048;-50
2022/06/29 06:38:34;;;;;;;35.45;22.63;;;;;;;17.63;76.21;101332.00;5092255;28;20040;-52
2022/06/29 06:43:43;;;;;;;36.08;20.45;;;;;;;17.91;73.77;101319.19;5092235;28;20042;-51
2022/06/29 06:46:09;;;;;;;29.38;21.02;;;;;;;18.02;72.45;101324.50;5092278;28;20028;-52
2022/06/29 06:48:35;;;;;;;35.15;21.38;;;;;;;18.14;72.93;101321.09;5092789;28;20506;-50
2022/06/29 06:51:00;;;;;;;33.65;21.80;;;;;;;18.27;73.52;101318.56;5092120;28;20141;-51
2022/06/29 06:53:26;;;;;;;28.58;17.98;;;;;;;18.36;71.21;101320.34;5092401;28;20047;-53
2022/06/29 06:55:52;;;;;;;31.02;16.77;;;;;;;18.52;69.57;101320.44;5092593;28;20024;-53
2022/06/29 06:58:17;;;;;;;26.70;16.67;;;;;;;18.64;70.23;101325.69;5091708;28;20052;-50
2022/06/29 07:00:43;;;;;;;24.63;15.57;;;;;;;18.75;69.63;101325.75;5092491;28;20036;-52
2022/06/29 07:03:09;;;;;;;22.20;15.30;;;;;;;18.89;67.32;101325.78;5092274;28;20515;-50
2022/06/29 07:05:34;;;;;;;23.17;14.52;;;;;;;19.00;67.00;101329.31;5091904;28;20024;-53
2022/06/29 07:07:59;;;;;;;21.75;13.80;;;;;;;19.15;66.78;101327.63;5095133;28;20028;-52
2022/06/29 07:10:25;;;;;;;20.90;13.05;;;;;;;19.22;64.36;101329.34;5096272;28;20028;-51
2022/06/29 07:12:50;;;;;;;29.50;15.88;;;;;;;19.37;66.34;101321.53;5095872;28;20529;-51
2022/06/29 07:15:15;;;;;;;22.48;13.45;;;;;;;19.45;65.86;101325.91;5095859;28;20523;-52
2022/06/29 07:17:41;;;;;;;24.75;13.05;;;;;;;19.42;65.66;101325.03;5096430;28;20028;-51
2022/06/29 07:20:08;;;;;;;18.00;12.88;;;;;;;19.40;66.25;101329.34;5095794;28;20101;-52
2022/06/29 07:22:33;;;;;;;23.48;12.55;;;;;;;19.36;65.40;101327.63;5096107;28;20024;-50
2022/06/29 07:24:58;;;;;;;30.67;12.25;;;;;;;19.40;65.58;101331.97;5096165;28;20027;-52
2022/06/29 07:27:24;;;;;;;22.88;12.82;;;;;;;19.38;64.54;101323.28;5095545;28;20021;-50
2022/06/29 07:29:52;;;;;;;24.38;13.35;;;;;;;19.38;64.81;101325.91;5095804;28;20467;-51
2022/06/29 07:32:17;;;;;;;21.80;12.65;;;;;;;19.32;64.99;101325.88;5096027;28;20024;-51
2022/06/29 07:34:43;;;;;;;25.38;13.43;;;;;;;19.32;64.98;101320.66;5095427;28;20103;-51
2022/06/29 07:37:08;;;;;;;20.20;12.55;;;;;;;19.32;64.65;101323.28;5095661;28;20028;-52
2022/06/29 07:39:33;;;;;;;18.60;12.82;;;;;;;19.40;64.49;101321.53;5095950;28;20028;-53
2022/06/29 07:41:59;;;;;;;19.55;12.10;;;;;;;19.60;66.16;101318.06;5095037;28;20544;-52
2022/06/29 07:44:24;;;;;;;25.90;13.45;;;;;;;19.76;64.38;101318.91;5095628;28;20128;-51
2022/06/29 07:46:49;;;;;;;21.90;11.93;;;;;;;19.92;65.19;101311.94;5095922;28;20456;-54
2022/06/29 07:49:14;;;;;;;21.35;10.32;;;;;;;20.13;61.20;101305.81;5094762;28;20035;-53
2022/06/29 07:51:40;;;;;;;21.02;9.80;;;;;;;20.23;60.63;101314.47;5095716;28;20084;-53
2022/06/29 07:54:05;;;;;;;20.33;10.15;;;;;;;20.44;60.14;101315.28;5094957;28;20035;-52
2022/06/29 07:56:32;;;;;;;21.45;10.50;;;;;;;20.55;60.03;101311.78;5095505;28;20050;-53
2022/06/29 07:59:00;;;;;;;22.58;11.43;;;;;;;20.66;58.78;101306.47;5095196;28;20052;-52
2022/06/29 08:01:25;;;;;;;17.52;10.07;;;;;;;20.84;59.06;101309.91;5094826;28;20020;-53
2022/06/29 08:03:51;;;;;;;19.70;11.63;;;;;;;20.88;57.84;101311.63;5095340;28;20026;-53
2022/06/29 08:06:16;;;;;;;17.45;10.27;;;;;;;21.00;59.56;101301.06;5095193;28;20031;-53
2022/06/29 08:08:42;;;;;;;17.05;10.55;;;;;;;21.13;60.37;101306.22;5094938;28;20028;-53
2022/06/29 08:11:08;;;;;;;22.17;12.00;;;;;;;21.15;58.27;101294.84;5094967;28;20032;-52
2022/06/29 08:13:34;;;;;;;24.63;11.20;;;;;;;21.26;58.40;101297.38;5095053;28;20117;-53
2022/06/29 08:15:59;;;;;;;16.30;9.95;;;;;;;21.45;59.38;101310.38;5094778;28;20111;-52
2022/06/29 08:18:24;;;;;;;18.60;9.70;;;;;;;21.58;56.04;101298.91;5093841;28;20047;-53
2022/06/29 08:20:50;;;;;;;11.13;7.53;;;;;;;21.78;54.66;101297.84;5095199;28;20032;-48
2022/06/29 08:23:15;;;;;;;14.40;6.80;;;;;;;21.93;56.33;101302.94;5094366;28;20031;-52
2022/06/29 08:25:40;;;;;;;13.68;6.57;;;;;;;22.17;58.37;101303.56;5094714;28;20028;-53
2022/06/29 08:28:06;;;;;;;11.23;6.00;;;;;;;22.33;54.72;101294.59;5094714;28;20020;-53
2022/06/29 08:30:31;;;;;;;12.27;5.35;;;;;;;22.49;54.50;101297.06;5094494;28;20028;-53
2022/06/29 08:32:57;;;;;;;17.27;5.32;;;;;;;22.60;53.01;101295.19;5094897;28;20024;-53
2022/06/29 08:35:22;;;;;;;11.50;5.30;;;;;;;22.71;52.05;101291.53;5094750;28;20062;-53
2022/06/29 08:37:47;;;;;;;10.90;5.68;;;;;;;22.85;52.25;101297.47;5094205;28;20051;-53
2022/06/29 08:40:15;;;;;;;11.63;5.30;;;;;;;22.96;51.92;101294.69;5094447;28;20025;-53
2022/06/29 08:42:41;;;;;;;10.02;5.22;;;;;;;23.00;49.70;101291.13;5094558;28;20030;-53
2022/06/29 08:45:08;;;;;;;11.27;4.57;;;;;;;23.09;50.11;101295.38;5093949;28;20111;-51
2022/06/29 08:47:33;;;;;;;11.15;4.28;;;;;;;23.11;48.84;101286.56;5093392;28;20052;-53
2022/06/29 08:50:03;;;;;;;10.68;4.57;;;;;;;23.20;50.19;101289.97;5091902;28;20064;-53
2022/06/29 08:52:28;;;;;;;11.30;5.43;;;;;;;23.28;49.11;101281.06;5091798;28;20154;-54
2022/06/29 08:54:54;;;;;;;8.43;5.13;;;;;;;23.48;50.44;101287.75;5093749;28;20126;-54
2022/06/29 08:57:21;;;;;;;14.65;5.28;;;;;;;23.61;48.52;101285.78;5093231;28;20027;-54
2022/06/29 08:59:48;;;;;;;12.52;4.97;;;;;;;23.81;50.26;101286.28;5093665;28;20487;-53
2022/06/29 09:02:13;;;;;;;15.93;5.25;;;;;;;24.03;49.53;101279.75;5094367;28;20036;-53
2022/06/29 09:04:39;;;;;;;10.77;4.47;;;;;;;24.24;47.15;101287.22;5093578;28;20035;-53
2022/06/29 09:07:05;;;;;;;11.88;4.40;;;;;;;24.38;47.36;101286.09;5093779;28;20027;-54
2022/06/29 09:09:30;;;;;;;7.97;4.82;;;;;;;24.25;47.09;101286.34;5093921;28;20031;-54
2022/06/29 09:11:56;;;;;;;9.10;4.45;;;;;;;24.13;49.77;101286.56;5093632;28;20020;-53
2022/06/29 09:14:24;;;;;;;12.18;4.47;;;;;;;24.07;51.05;101290.22;5093750;28;20028;-54
2022/06/29 09:16:52;;;;;;;12.55;4.35;;;;;;;24.09;49.42;101284.91;5093934;28;20364;-54
2022/06/29 09:19:19;;;;;;;9.63;4.15;;;;;;;24.23;48.22;101288.13;5093274;28;20027;-54
2022/06/29 09:21:45;;;;;;;10.00;4.10;;;;;;;24.38;49.85;101286.09;5093726;28;20103;-54
2022/06/29 09:24:17;;;;;;;10.07;4.40;;;;;;;24.43;49.53;101286.88;5093713;28;20375;-53
2022/06/29 09:26:43;;;;;;;10.45;4.30;;;;;;;24.45;48.42;101288.56;5093341;28;20414;-54
2022/06/29 09:29:19;;;;;;;8.25;4.57;;;;;;;24.47;47.96;101288.53;5093139;28;20035;-54
2022/06/29 09:32:04;;;;;;;11.18;4.43;;;;;;;24.46;47.25;101279.75;5093992;28;20024;-53
2022/06/29 09:34:42;;;;;;;11.20;4.30;;;;;;;24.57;48.17;101292.69;5092684;28;20069;-54
2022/06/29 09:37:10;;;;;;;11.70;4.47;;;;;;;24.60;45.65;101292.63;5093780;28;20024;-53
2022/06/29 09:39:36;;;;;;;11.40;3.53;;;;;;;24.66;46.56;101289.00;5093086;28;20024;-53
2022/06/29 09:42:02;;;;;;;9.38;3.80;;;;;;;24.78;44.89;101291.38;5093369;28;20028;-53
2022/06/29 09:44:28;;;;;;;8.97;3.50;;;;;;;24.94;44.30;101286.59;5093418;28;20110;-53
2022/06/29 09:46:55;;;;;;;7.47;3.45;;;;;;;25.10;44.01;101287.13;5092937;28;20110;-53
2022/06/29 09:49:25;;;;;;;;;;;;;;;25.22;46.77;101285.94;5093188;28;20032;-53
2022/06/29 09:51:54;;;;;;;11.15;3.10;;;;;;;25.41;44.94;101290.78;5093439;28;20363;-52
2022/06/29 09:54:23;;;;;;;12.35;3.97;;;;;;;25.43;42.09;101292.47;5092645;28;20034;-52
2022/06/29 09:56:49;;;;;;;6.18;3.08;;;;;;;25.57;44.48;101292.13;5093293;28;20039;-52
2022/06/29 10:02:34;;;;;;;10.00;3.50;;;;;;;25.61;42.93;101283.22;5093094;28;20040;-53
2022/06/29 10:04:59;;;;;;;8.63;3.53;;;;;;;26.34;42.38;101283.00;5093659;28;20039;-53
2022/06/29 10:07:25;;;;;;;7.03;2.88;;;;;;;26.47;39.45;101273.81;5093138;28;20023;-53
2022/06/29 10:09:50;;;;;;;7.63;2.72;;;;;;;26.38;40.05;101274.09;5092225;28;20024;-52
2022/06/29 10:15:13;;;;;;;9.55;2.60;;;;;;;26.37;36.08;101277.66;5092632;28;20073;-52
2022/06/29 10:18:06;;;;;;;6.80;2.33;;;;;;;26.81;39.43;101279.88;5092871;28;20103;-52
2022/06/29 10:20:47;;;;;;;6.93;2.53;;;;;;;26.92;35.31;101270.69;5092860;28;20471;-53
2022/06/29 10:23:51;;;;;;;10.40;2.90;;;;;;;27.19;36.10;101268.06;5092186;28;20472;-52
2022/06/29 10:26:30;;;;;;;7.28;2.28;;;;;;;27.84;34.74;101270.28;5092754;28;20023;-51
2022/06/29 10:28:56;;;;;;;5.90;2.20;;;;;;;28.45;32.47;101267.13;5092334;28;20032;-53
2022/06/29 10:31:56;;;;;;;7.75;2.22;;;;;;;29.60;35.02;101267.81;5092469;28;20129;-53
2022/06/29 10:34:31;;;;;;;9.80;2.60;;;;;;;30.52;32.81;101265.44;5092483;28;20028;-52
2022/06/29 10:37:00;;;;;;;5.07;2.08;;;;;;;31.07;29.55;101259.25;5092261;28;20472;-52
2022/06/29 10:39:25;;;;;;;4.13;2.20;;;;;;;31.68;28.92;101257.03;5092336;28;20468;-49
2022/06/29 10:44:54;;;;;;;6.90;2.22;;;;;;;32.06;30.56;101251.47;5096510;28;20050;-51
2022/06/29 10:47:23;;;;;;;7.47;2.65;;;;;;;31.40;30.16;101250.50;5096693;28;20111;-50
2022/06/29 10:49:49;;;;;;;8.18;2.65;;;;;;;30.73;29.18;101249.38;5096156;28;20073;-49
2022/06/29 10:52:15;;;;;;;6.45;2.10;;;;;;;31.13;28.47;101242.97;5096354;28;20028;-52
2022/06/29 10:54:40;;;;;;;5.97;1.90;;;;;;;31.59;26.16;101228.19;5096850;28;20028;-51
2022/06/29 10:57:06;;;;;;;6.10;2.10;;;;;;;31.96;27.55;101232.44;5096124;28;20273;-50
2022/06/29 10:59:35;;;;;;;5.97;1.80;;;;;;;31.78;26.66;101228.97;5096125;28;20052;-50
2022/06/29 11:02:11;;;;;;;7.45;2.25;;;;;;;31.79;28.91;101229.81;5096457;28;20028;-50
2022/06/29 11:04:38;;;;;;;4.40;2.00;;;;;;;31.67;27.95;101231.34;5095921;28;20483;-50
2022/06/29 11:12:50;;;;;;;4.10;2.30;;;;;;;30.27;30.55;101224.03;5095618;28;20117;-50
2022/06/29 11:15:42;;;;;;;8.13;2.38;;;;;;;30.77;28.89;101224.34;5096393;28;20016;-50
2022/06/29 11:18:07;;;;;;;4.97;1.98;;;;;;;30.78;28.91;101221.63;5095627;28;20016;-50
2022/06/29 11:20:33;;;;;;;3.38;1.90;;;;;;;30.67;28.67;101223.94;5096121;28;20020;-50
2022/06/29 11:22:58;;;;;;;8.25;2.35;;;;;;;30.27;30.22;101225.84;5096129;28;20023;-50
2022/06/29 11:25:34;;;;;;;13.55;2.70;;;;;;;29.88;29.26;101215.19;5095574;28;20027;-50
2022/06/29 11:27:59;;;;;;;5.68;2.58;;;;;;;30.08;30.48;101216.06;5095846;28;20391;-50
2022/06/29 11:30:25;;;;;;;6.30;2.53;;;;;;;30.54;29.96;101213.91;5096230;28;20467;-51